Time;durP1;ratioP1;P1;durP2;ratioP2;P2;SDS_P1;SDS_P2;PMS_P1;PMS_P2;Temp;Humidity;BMP_temperature;BMP_pressure;BME280_temperature;BME280_humidity;BME280_pressure;Samples;Min_cycle;Max_cycle;Signal;HPM_P1;HPM_P2
2023/02/23 00:00:27;;;;;;;24.00;16.23;;;5.90;99.90;;;;;;5009113;28;20022;-78
2023/02/23 00:02:59;;;;;;;28.13;15.97;;;5.90;99.90;;;;;;5010591;28;20022;-78
2023/02/23 00:05:27;;;;;;;27.83;16.77;;;5.90;99.90;;;;;;5009618;28;20041;-78
2023/02/23 00:07:53;;;;;;;26.27;16.37;;;5.90;99.90;;;;;;5016222;28;20045;-78
2023/02/23 00:10:20;;;;;;;27.37;17.40;;;5.90;99.90;;;;;;5007130;28;20984;-78
2023/02/23 00:12:46;;;;;;;26.37;16.00;;;5.90;99.90;;;;;;5010717;28;20030;-78
2023/02/23 00:15:12;;;;;;;23.90;15.87;;;5.90;99.90;;;;;;5006580;28;20125;-78
2023/02/23 00:17:39;;;;;;;24.73;16.37;;;6.00;99.90;;;;;;5010042;28;20049;-78
2023/02/23 00:20:10;;;;;;;26.07;16.73;;;5.90;99.90;;;;;;5008817;28;20382;-78
2023/02/23 00:22:39;;;;;;;24.73;16.90;;;6.00;99.90;;;;;;5007910;28;20056;-78
2023/02/23 00:25:07;;;;;;;24.83;16.63;;;6.00;99.90;;;;;;5009596;28;20060;-78
2023/02/23 00:27:37;;;;;;;25.87;16.23;;;6.00;99.90;;;;;;5009713;28;20058;-78
2023/02/23 00:30:04;;;;;;;26.30;16.17;;;6.00;99.90;;;;;;5008308;28;20113;-78
2023/02/23 00:32:29;;;;;;;27.17;17.43;;;6.00;99.90;;;;;;5010297;28;20030;-78
2023/02/23 00:34:57;;;;;;;25.07;16.90;;;6.00;99.90;;;;;;5008714;28;20034;-78
2023/02/23 00:37:22;;;;;;;24.33;15.87;;;6.00;99.90;;;;;;5010794;28;20117;-78
2023/02/23 00:39:49;;;;;;;27.50;17.70;;;6.10;99.90;;;;;;5009280;28;20152;-78
2023/02/23 00:42:14;;;;;;;26.70;17.47;;;6.00;99.90;;;;;;5008966;28;20105;-78
2023/02/23 00:44:41;;;;;;;27.80;16.63;;;6.10;99.90;;;;;;5007491;28;20117;-78
2023/02/23 00:47:06;;;;;;;28.00;16.87;;;6.10;99.90;;;;;;5010183;28;20037;-78
2023/02/23 00:49:32;;;;;;;27.40;17.33;;;6.10;99.90;;;;;;5008213;28;20037;-78
2023/02/23 00:51:58;;;;;;;28.57;17.70;;;6.10;99.90;;;;;;5007943;28;20076;-78
2023/02/23 00:54:24;;;;;;;24.10;16.37;;;6.10;99.90;;;;;;5008863;28;20578;-78
2023/02/23 00:56:50;;;;;;;31.60;17.70;;;6.10;99.90;;;;;;5008046;28;20030;-78
2023/02/23 00:59:17;;;;;;;27.13;16.23;;;6.20;99.90;;;;;;5010387;28;20048;-78
2023/02/23 01:01:43;;;;;;;31.23;17.33;;;6.20;99.90;;;;;;5017178;28;20041;-78
2023/02/23 01:04:10;;;;;;;26.53;18.20;;;6.20;99.90;;;;;;5008280;28;20020;-78
2023/02/23 01:06:37;;;;;;;29.23;17.50;;;6.10;99.90;;;;;;5008759;28;20035;-78
2023/02/23 01:09:12;;;;;;;24.70;16.13;;;6.20;99.90;;;;;;5008038;28;20109;-78
2023/02/23 01:11:40;;;;;;;;;;;6.10;99.90;;;;;;5008939;28;20026;-78
2023/02/23 01:14:06;;;;;;;21.83;16.13;;;6.10;99.90;;;;;;5008704;28;19925;-78
2023/02/23 01:16:33;;;;;;;28.07;17.37;;;6.10;99.90;;;;;;5008154;28;20034;-78
2023/02/23 01:19:02;;;;;;;27.77;17.83;;;6.10;99.90;;;;;;5006171;28;20104;-78
2023/02/23 01:21:34;;;;;;;28.10;17.83;;;6.10;99.90;;;;;;5009000;28;20026;-78
2023/02/23 01:24:01;;;;;;;27.90;17.87;;;6.10;99.90;;;;;;5006826;28;20030;-78
2023/02/23 01:26:33;;;;;;;28.47;18.40;;;6.20;99.90;;;;;;5007631;28;20022;-78
2023/02/23 01:29:04;;;;;;;28.53;18.53;;;6.20;99.90;;;;;;5006288;28;20049;-78
2023/02/23 01:31:29;;;;;;;28.17;18.03;;;6.20;99.90;;;;;;5007136;28;20022;-78
2023/02/23 01:33:57;;;;;;;27.70;18.20;;;6.20;99.90;;;;;;5006270;28;20041;-78
2023/02/23 01:36:24;;;;;;;28.43;18.60;;;6.20;99.90;;;;;;5008238;28;20558;-78
2023/02/23 01:38:53;;;;;;;29.73;18.90;;;6.20;99.90;;;;;;5006902;28;20014;-78
2023/02/23 01:41:18;;;;;;;28.63;19.47;;;6.30;99.90;;;;;;5005461;28;20014;-78
2023/02/23 01:43:57;;;;;;;28.20;18.77;;;6.30;99.90;;;;;;5008862;28;20048;-78
2023/02/23 01:46:23;;;;;;;29.97;17.97;;;6.30;99.90;;;;;;5007376;28;20315;-78
2023/02/23 01:48:51;;;;;;;27.70;17.63;;;6.30;99.90;;;;;;5009109;28;20022;-78
2023/02/23 01:51:21;;;;;;;28.93;17.40;;;6.30;99.90;;;;;;5006867;28;20056;-78
2023/02/23 01:54:01;;;;;;;26.23;17.80;;;6.30;99.90;;;;;;5007756;28;20056;-78
2023/02/23 01:56:31;;;;;;;31.90;18.80;;;6.30;99.90;;;;;;5006777;28;20041;-78
2023/02/23 01:59:00;;;;;;;28.30;18.37;;;6.30;99.90;;;;;;5007061;28;20061;-78
2023/02/23 02:01:28;;;;;;;27.07;17.73;;;6.30;99.90;;;;;;5005087;28;20034;-78
2023/02/23 02:04:15;;;;;;;27.87;18.10;;;6.30;99.90;;;;;;5007284;28;20486;-78
2023/02/23 02:06:43;;;;;;;31.30;18.70;;;6.30;99.90;;;;;;4979057;28;20031;-78
2023/02/23 02:09:16;;;;;;;30.77;19.27;;;6.30;99.90;;;;;;4979484;28;20031;-78
2023/02/23 02:11:45;;;;;;;30.33;18.27;;;6.30;99.90;;;;;;4979158;28;20096;-78
2023/02/23 02:14:20;;;;;;;31.90;19.80;;;6.30;99.90;;;;;;4977949;28;20105;-78
2023/02/23 02:17:22;;;;;;;27.73;19.67;;;6.30;99.90;;;;;;4975914;28;20125;-78
2023/02/23 02:20:12;;;;;;;29.00;19.13;;;6.30;99.90;;;;;;4978040;28;20506;-78
2023/02/23 02:23:15;;;;;;;32.27;19.97;;;6.30;99.90;;;;;;4976734;28;20124;-78
2023/02/23 02:25:52;;;;;;;30.37;19.40;;;6.30;99.90;;;;;;4980262;28;20053;-78
2023/02/23 02:28:40;;;;;;;36.30;20.10;;;6.40;99.90;;;;;;4977788;28;20174;-78
2023/02/23 02:31:41;;;;;;;27.57;19.83;;;6.40;99.90;;;;;;4978677;28;20030;-78
2023/02/23 02:34:23;;;;;;;27.90;18.23;;;6.40;99.90;;;;;;4993362;28;20042;-78
2023/02/23 02:37:11;;;;;;;25.03;17.53;;;6.40;99.90;;;;;;4965198;28;20026;-78
2023/02/23 02:39:45;;;;;;;30.67;18.63;;;6.30;99.90;;;;;;5006247;28;20030;-78
2023/02/23 02:42:38;;;;;;;35.40;20.83;;;6.40;99.90;;;;;;5007746;28;20030;-78
2023/02/23 02:45:26;;;;;;;30.50;19.63;;;6.30;99.90;;;;;;5005734;28;20720;-78
2023/02/23 02:48:09;;;;;;;28.60;18.97;;;6.40;99.90;;;;;;5004614;28;20034;-78
2023/02/23 02:50:59;;;;;;;34.23;21.43;;;6.30;99.90;;;;;;5015202;28;20153;-78
2023/02/23 02:53:28;;;;;;;31.47;21.23;;;6.30;99.90;;;;;;5004915;28;20048;-78
2023/02/23 02:55:58;;;;;;;31.43;21.17;;;6.40;99.90;;;;;;5005803;28;20571;-78
2023/02/23 02:58:26;;;;;;;31.63;21.03;;;6.30;99.90;;;;;;5006925;28;20065;-78
2023/02/23 04:17:38;;;;;;;36.33;21.97;;;5.70;99.90;;;;;;5012837;28;20022;-78
2023/02/23 04:20:05;;;;;;;34.87;22.23;;;5.60;99.90;;;;;;5008472;28;20014;-78
2023/02/23 04:22:31;;;;;;;35.97;22.00;;;5.60;99.90;;;;;;5010012;28;20026;-78
2023/02/23 04:24:57;;;;;;;38.67;22.93;;;5.60;99.90;;;;;;5008190;28;20072;-78
2023/02/23 04:27:22;;;;;;;34.00;22.70;;;5.60;99.90;;;;;;5008068;28;20038;-78
2023/02/23 04:29:48;;;;;;;35.63;21.70;;;5.60;99.90;;;;;;5010074;28;20026;-78
2023/02/23 04:32:16;;;;;;;35.50;21.33;;;5.50;99.90;;;;;;5008459;28;20024;-78
2023/02/23 04:34:43;;;;;;;34.73;21.03;;;5.50;99.90;;;;;;5009054;28;20046;-78
2023/02/23 04:37:11;;;;;;;36.20;21.40;;;5.50;99.90;;;;;;5006312;28;20053;-78
2023/02/23 04:39:36;;;;;;;36.17;22.43;;;5.50;99.90;;;;;;5017203;28;20081;-78
2023/02/23 04:42:02;;;;;;;32.80;21.53;;;5.40;99.90;;;;;;5007185;28;20470;-78
2023/02/23 04:44:27;;;;;;;34.37;22.00;;;5.40;99.90;;;;;;5007486;28;20026;-78
2023/02/23 04:46:54;;;;;;;34.53;22.00;;;5.30;99.90;;;;;;5007008;28;20023;-78
2023/02/23 04:49:20;;;;;;;37.70;20.67;;;5.30;99.90;;;;;;5008373;28;20169;-78
2023/02/23 04:51:46;;;;;;;36.40;21.57;;;5.30;99.90;;;;;;5007762;28;20507;-77
2023/02/23 04:54:12;;;;;;;32.13;20.17;;;5.20;99.90;;;;;;5009287;28;20686;-77
2023/02/23 04:56:38;;;;;;;33.40;20.77;;;5.20;99.90;;;;;;5005357;28;20025;-76
2023/02/23 04:59:03;;;;;;;35.77;21.03;;;5.10;99.90;;;;;;5006153;28;20018;-76
2023/02/23 05:01:31;;;;;;;31.77;21.00;;;5.10;99.90;;;;;;5005652;28;20018;-76
2023/02/23 05:03:57;;;;;;;35.93;21.77;;;5.10;99.90;;;;;;5007015;28;20026;-76
2023/02/23 05:06:22;;;;;;;35.27;21.77;;;5.10;99.90;;;;;;5004252;28;20022;-76
2023/02/23 05:08:48;;;;;;;34.43;22.63;;;5.00;99.90;;;;;;5003094;28;20037;-76
2023/02/23 05:11:13;;;;;;;38.10;24.27;;;5.00;99.90;;;;;;5004858;28;20030;-76
2023/02/23 05:13:39;;;;;;;36.70;22.60;;;4.90;99.90;;;;;;5008529;28;20022;-76
2023/02/23 05:16:05;;;;;;;40.80;24.60;;;4.90;99.90;;;;;;5005032;28;20104;-76
2023/02/23 05:18:30;;;;;;;43.40;24.90;;;4.90;99.90;;;;;;5006865;28;20089;-75
2023/02/23 05:21:05;;;;;;;40.53;26.03;;;4.90;99.90;;;;;;5006906;28;20022;-75
2023/02/23 05:23:33;;;;;;;38.65;25.10;;;4.90;99.90;;;;;;5004815;28;20085;-76
2023/02/23 05:26:08;;;;;;;41.97;25.70;;;4.90;99.90;;;;;;5004455;28;20030;-75
2023/02/23 05:28:36;;;;;;;40.20;23.88;;;4.90;99.90;;;;;;5005719;28;20030;-75
2023/02/23 05:31:02;;;;;;;35.97;22.87;;;4.90;99.90;;;;;;5004331;28;20077;-77
2023/02/23 05:33:28;;;;;;;36.13;22.23;;;4.90;99.90;;;;;;5007267;28;20022;-77
2023/02/23 05:35:54;;;;;;;37.97;22.97;;;5.00;99.90;;;;;;5004138;28;20080;-76
2023/02/23 05:38:20;;;;;;;38.93;21.77;;;5.00;99.90;;;;;;5004381;28;20022;-76
2023/02/23 05:40:46;;;;;;;39.07;22.83;;;5.10;99.90;;;;;;5005833;28;20018;-76
2023/02/23 05:43:12;;;;;;;38.63;23.43;;;5.10;99.90;;;;;;5004211;28;20417;-77
2023/02/23 05:45:41;;;;;;;38.00;23.77;;;5.10;99.90;;;;;;5006949;28;20045;-77
2023/02/23 05:48:08;;;;;;;39.40;24.73;;;5.10;99.90;;;;;;5009150;28;20049;-77
2023/02/23 05:50:39;;;;;;;34.97;22.77;;;5.20;99.90;;;;;;5007808;28;20034;-80
2023/02/23 05:53:04;;;;;;;35.77;23.90;;;5.20;99.90;;;;;;5000563;28;20045;-80
2023/02/23 05:55:30;;;;;;;38.23;23.07;;;5.30;99.90;;;;;;5005853;28;20036;-78
2023/02/23 05:57:56;;;;;;;34.53;21.63;;;5.30;99.90;;;;;;4999854;28;20068;-78
2023/02/23 06:00:21;;;;;;;31.73;21.07;;;5.30;99.90;;;;;;5001266;28;20034;-75
2023/02/23 06:02:48;;;;;;;34.57;20.93;;;5.40;99.90;;;;;;5001072;28;20029;-76
2023/02/23 06:05:14;;;;;;;39.00;22.17;;;5.40;99.90;;;;;;5001118;28;20985;-77
2023/02/23 06:07:40;;;;;;;33.97;21.63;;;5.50;99.90;;;;;;5002156;28;20080;-77
2023/02/23 06:10:06;;;;;;;34.17;20.60;;;5.50;99.90;;;;;;5000435;28;20371;-77
2023/02/23 06:12:32;;;;;;;33.90;20.67;;;5.50;99.90;;;;;;5002472;28;20026;-77
2023/02/23 06:14:57;;;;;;;35.87;21.87;;;5.60;99.90;;;;;;4999176;28;20030;-81
2023/02/23 06:17:23;;;;;;;33.77;21.90;;;5.60;99.90;;;;;;4993961;28;20025;-81
2023/02/23 06:19:49;;;;;;;32.20;21.37;;;5.60;99.90;;;;;;5001233;28;20417;-76
2023/02/23 06:22:16;;;;;;;31.83;20.37;;;5.60;99.90;;;;;;5001654;28;20022;-76
2023/02/23 06:24:42;;;;;;;28.33;19.97;;;5.60;99.90;;;;;;5001742;28;20132;-76
2023/02/23 06:27:08;;;;;;;30.30;19.20;;;5.60;99.90;;;;;;5003284;28;20025;-76
2023/02/23 06:29:36;;;;;;;32.07;20.47;;;5.70;99.90;;;;;;4994345;28;20072;-78
2023/02/23 06:32:02;;;;;;;31.33;19.87;;;5.60;99.90;;;;;;4996128;28;20785;-78
2023/02/23 06:34:28;;;;;;;33.67;20.43;;;5.70;99.90;;;;;;4995699;28;20038;-80
2023/02/23 06:36:53;;;;;;;31.50;19.63;;;5.60;99.90;;;;;;4997569;28;20161;-76
2023/02/23 06:39:19;;;;;;;30.87;20.20;;;5.60;99.90;;;;;;5001614;28;20030;-76
2023/02/23 06:41:44;;;;;;;37.97;21.37;;;5.70;99.90;;;;;;4996996;28;20028;-76
2023/02/23 06:44:10;;;;;;;34.77;21.53;;;5.60;99.90;;;;;;4993376;28;20022;-78
2023/02/23 06:46:36;;;;;;;38.03;21.53;;;5.70;99.90;;;;;;4990516;28;20026;-78
2023/02/23 06:49:02;;;;;;;34.63;22.00;;;5.70;99.90;;;;;;4997396;28;20170;-78
2023/02/23 06:51:28;;;;;;;36.70;20.47;;;5.70;99.90;;;;;;4998427;28;20635;-78
2023/02/23 06:53:54;;;;;;;32.27;20.03;;;5.70;99.90;;;;;;4997994;28;20168;-77
2023/02/23 06:56:20;;;;;;;31.07;20.80;;;5.70;99.90;;;;;;4995731;28;20403;-75
2023/02/23 06:58:46;;;;;;;35.23;22.33;;;5.70;99.90;;;;;;4993781;28;20117;-75
2023/02/23 07:01:12;;;;;;;32.00;21.30;;;5.80;99.90;;;;;;4991613;28;20036;-76
2023/02/23 07:03:38;;;;;;;29.73;20.03;;;5.80;99.90;;;;;;4995016;28;20490;-77
2023/02/23 07:06:04;;;;;;;31.83;19.93;;;5.80;99.90;;;;;;4991079;28;20038;-80
2023/02/23 07:08:33;;;;;;;37.90;21.93;;;5.90;99.90;;;;;;4991358;28;20018;-80
2023/02/23 07:11:25;;;;;;;32.37;19.97;;;5.90;99.90;;;;;;4991189;28;20033;-80
2023/02/23 07:13:51;;;;;;;34.87;20.77;;;6.00;99.90;;;;;;4992483;28;20084;-75
2023/02/23 07:16:16;;;;;;;34.33;20.40;;;6.00;99.90;;;;;;4994073;28;20042;-75
2023/02/23 07:18:42;;;;;;;32.23;21.23;;;6.00;99.90;;;;;;4993883;28;20034;-78
2023/02/23 07:21:07;;;;;;;33.87;21.30;;;6.10;99.90;;;;;;4992233;28;20161;-77
2023/02/23 07:23:33;;;;;;;33.70;21.50;;;6.10;99.90;;;;;;5000039;28;20037;-78
2023/02/23 07:25:59;;;;;;;33.50;21.63;;;6.20;99.90;;;;;;4997616;28;20034;-80
2023/02/23 07:28:27;;;;;;;31.83;20.40;;;6.20;99.90;;;;;;4993205;28;20022;-75
2023/02/23 07:31:00;;;;;;;33.57;20.00;;;6.20;99.90;;;;;;4992489;28;20068;-75
2023/02/23 07:33:25;;;;;;;30.60;20.90;;;6.20;99.90;;;;;;4994890;28;20037;-80
2023/02/23 07:35:51;;;;;;;34.13;20.00;;;6.30;99.90;;;;;;4994104;28;20026;-75
2023/02/23 07:38:17;;;;;;;35.20;19.40;;;6.30;99.90;;;;;;4996370;28;20038;-75
2023/02/23 07:40:43;;;;;;;38.17;20.53;;;6.30;99.90;;;;;;4997596;28;20104;-75
2023/02/23 07:43:09;;;;;;;32.03;20.43;;;6.30;99.90;;;;;;4999031;28;20960;-75
2023/02/23 07:45:35;;;;;;;37.00;21.50;;;6.40;99.90;;;;;;5000060;28;20029;-75
2023/02/23 07:48:01;;;;;;;34.20;20.90;;;6.40;99.90;;;;;;5000092;28;20026;-75
2023/02/23 07:50:26;;;;;;;33.37;20.30;;;6.50;99.90;;;;;;5004051;28;20030;-75
2023/02/23 07:52:52;;;;;;;32.30;20.07;;;6.50;99.90;;;;;;4998917;28;20058;-75
2023/02/23 07:55:17;;;;;;;31.67;20.93;;;6.50;99.90;;;;;;4999072;28;20053;-75
2023/02/23 07:57:43;;;;;;;31.07;20.80;;;6.60;99.90;;;;;;4999398;28;20463;-75
2023/02/23 08:00:10;;;;;;;34.13;21.40;;;6.60;99.90;;;;;;5001947;28;20037;-75
2023/02/23 08:02:36;;;;;;;33.97;21.63;;;6.70;99.90;;;;;;5002136;28;20117;-75
2023/02/23 08:05:02;;;;;;;33.90;21.30;;;6.70;99.90;;;;;;4998864;28;20487;-75
2023/02/23 08:07:30;;;;;;;30.80;20.40;;;6.80;99.90;;;;;;4999881;28;20105;-77
2023/02/23 08:09:56;;;;;;;37.23;22.00;;;6.80;99.90;;;;;;5013223;28;20054;-79
2023/02/23 08:12:21;;;;;;;36.60;21.23;;;6.90;99.90;;;;;;5000694;28;20093;-79
2023/02/23 08:14:47;;;;;;;31.17;20.60;;;7.00;99.90;;;;;;4999141;28;20038;-79
2023/02/23 08:17:13;;;;;;;33.20;19.90;;;7.00;99.90;;;;;;4997080;28;20057;-79
2023/02/23 08:19:39;;;;;;;33.33;19.53;;;7.10;99.90;;;;;;4995349;28;20058;-79
2023/02/23 08:22:05;;;;;;;32.67;20.63;;;7.20;99.90;;;;;;4996732;28;20120;-79
2023/02/23 08:24:30;;;;;;;29.83;19.27;;;7.30;99.90;;;;;;5001476;28;20022;-80
2023/02/23 08:26:57;;;;;;;32.43;20.10;;;7.40;99.90;;;;;;4996758;28;20025;-80
2023/02/23 08:29:23;;;;;;;28.93;20.10;;;7.50;99.90;;;;;;4998892;28;20026;-81
2023/02/23 08:31:50;;;;;;;30.87;19.57;;;7.60;99.90;;;;;;4998398;28;20076;-80
2023/02/23 08:34:16;;;;;;;30.40;19.83;;;7.70;99.90;;;;;;4997547;28;20025;-81
2023/02/23 08:36:44;;;;;;;31.20;19.23;;;7.90;99.90;;;;;;4996600;28;20027;-80
2023/02/23 08:39:11;;;;;;;30.17;19.77;;;8.00;99.90;;;;;;4998501;28;20045;-80
2023/02/23 08:41:37;;;;;;;29.63;18.83;;;8.10;99.90;;;;;;4999061;28;20498;-81
2023/02/23 08:44:02;;;;;;;28.13;18.43;;;8.30;99.90;;;;;;4998884;28;20033;-80
2023/02/23 08:46:28;;;;;;;28.07;18.70;;;8.40;99.90;;;;;;4997422;28;20022;-81
2023/02/23 08:48:55;;;;;;;27.43;18.83;;;8.50;99.90;;;;;;4997668;28;20026;-80
2023/02/23 08:51:20;;;;;;;27.53;18.63;;;8.60;99.90;;;;;;4999734;28;20030;-80
2023/02/23 08:53:46;;;;;;;28.80;17.90;;;8.70;99.90;;;;;;5003609;28;20049;-81
2023/02/23 08:56:12;;;;;;;32.00;18.80;;;8.80;99.90;;;;;;5003835;28;20038;-80
2023/02/23 08:58:38;;;;;;;28.50;18.57;;;8.90;99.90;;;;;;5003034;28;20470;-80
2023/02/23 09:01:04;;;;;;;33.80;19.20;;;9.00;99.90;;;;;;5004121;28;20022;-81
2023/02/23 09:03:36;;;;;;;25.80;17.43;;;9.00;99.90;;;;;;5007575;28;20057;-81
2023/02/23 09:06:12;;;;;;;25.53;17.83;;;9.20;99.90;;;;;;5010866;28;20042;-80
2023/02/23 09:08:38;;;;;;;26.80;16.43;;;9.30;99.90;;;;;;5004544;28;20084;-81
2023/02/23 09:11:06;;;;;;;28.10;17.77;;;9.30;99.90;;;;;;5001463;28;20029;-81
2023/02/23 09:13:31;;;;;;;25.20;16.50;;;9.40;99.90;;;;;;5003050;28;20355;-81
2023/02/23 09:15:57;;;;;;;28.97;16.50;;;9.50;99.90;;;;;;5000465;28;20030;-78
2023/02/23 09:18:26;;;;;;;26.07;16.10;;;9.60;99.90;;;;;;5001833;28;20029;-77
2023/02/23 09:20:52;;;;;;;25.83;16.27;;;9.70;99.90;;;;;;5000599;28;20466;-77
2023/02/23 09:23:18;;;;;;;25.23;16.03;;;9.80;99.90;;;;;;4992284;28;20040;-77
2023/02/23 09:25:45;;;;;;;22.43;14.47;;;9.80;99.90;;;;;;5000024;28;20136;-77
2023/02/23 09:28:13;;;;;;;24.53;14.97;;;9.90;99.90;;;;;;4999599;28;20026;-77
2023/02/23 09:30:40;;;;;;;26.20;15.23;;;10.00;99.90;;;;;;4994332;28;20058;-77
2023/02/23 09:33:06;;;;;;;21.03;14.20;;;10.00;99.90;;;;;;4993216;28;20080;-77
2023/02/23 09:35:33;;;;;;;19.37;14.07;;;10.00;99.90;;;;;;4995037;28;20029;-77
2023/02/23 09:37:59;;;;;;;18.13;13.07;;;10.20;99.90;;;;;;4994424;28;20137;-77
2023/02/23 09:40:28;;;;;;;21.63;13.53;;;10.20;99.90;;;;;;4996160;28;20061;-77
2023/02/23 09:43:31;;;;;;;18.27;12.77;;;10.30;99.90;;;;;;4996048;28;20032;-77
2023/02/23 09:46:28;;;;;;;18.27;12.70;;;10.30;99.90;;;;;;4993351;28;20027;-77
2023/02/23 09:48:57;;;;;;;21.50;13.30;;;10.40;99.90;;;;;;4995599;28;20044;-77
2023/02/23 09:51:26;;;;;;;19.13;10.90;;;10.40;99.90;;;;;;4995463;28;20038;-77
2023/02/23 09:53:58;;;;;;;18.00;11.60;;;10.50;99.90;;;;;;4992129;28;20170;-77
2023/02/23 09:56:35;;;;;;;16.53;10.87;;;10.50;99.90;;;;;;4994811;28;20926;-77
2023/02/23 09:59:04;;;;;;;17.07;11.57;;;10.60;99.90;;;;;;4993449;28;20062;-77
2023/02/23 10:01:33;;;;;;;19.50;11.27;;;10.80;99.90;;;;;;5007679;28;20563;-77
2023/02/23 10:04:14;;;;;;;14.77;10.40;;;10.90;99.90;;;;;;4991537;28;20113;-78
2023/02/23 10:06:47;;;;;;;14.33;10.17;;;10.90;99.90;;;;;;4993930;28;20038;-75
2023/02/23 10:09:32;;;;;;;21.13;11.53;;;10.90;99.90;;;;;;4996819;28;20037;-75
2023/02/23 10:12:20;;;;;;;19.60;10.83;;;10.90;99.90;;;;;;4994545;28;20035;-75
2023/02/23 10:15:24;;;;;;;17.73;10.97;;;11.00;99.90;;;;;;4995716;28;20034;-75
2023/02/23 10:18:04;;;;;;;22.10;10.70;;;11.00;99.90;;;;;;4987540;28;20038;-75
2023/02/23 10:20:36;;;;;;;17.55;10.68;;;11.00;99.90;;;;;;4995396;28;20623;-75
2023/02/23 10:23:06;;;;;;;16.65;11.30;;;11.00;99.90;;;;;;4997099;28;20034;-75
2023/02/23 10:25:37;;;;;;;16.20;11.10;;;11.10;99.90;;;;;;5000204;28;20026;-75
2023/02/23 10:28:03;;;;;;;15.33;10.60;;;11.00;99.90;;;;;;4996753;28;20037;-75
2023/02/23 10:30:31;;;;;;;14.73;10.37;;;11.00;99.90;;;;;;4998616;28;20037;-76
2023/02/23 10:33:04;;;;;;;18.58;11.23;;;10.90;99.90;;;;;;4996293;28;20372;-76
2023/02/23 10:35:30;;;;;;;17.70;10.87;;;10.90;99.90;;;;;;4997765;28;20019;-76
2023/02/23 10:37:58;;;;;;;16.70;11.07;;;10.90;99.90;;;;;;4996502;28;20026;-75
2023/02/23 10:40:27;;;;;;;17.83;11.30;;;10.90;99.90;;;;;;4998452;28;20156;-76
2023/02/23 10:42:54;;;;;;;16.38;11.70;;;10.90;99.90;;;;;;5000287;28;20028;-75
2023/02/23 10:45:22;;;;;;;17.47;11.70;;;10.90;99.90;;;;;;4997040;28;20088;-78
2023/02/23 10:47:56;;;;;;;18.87;11.07;;;10.90;99.90;;;;;;4999318;28;20100;-78
2023/02/23 10:50:25;;;;;;;18.97;11.07;;;10.90;99.90;;;;;;4999147;28;20022;-78
2023/02/23 10:52:53;;;;;;;18.27;10.57;;;11.00;99.90;;;;;;4997682;28;20494;-78
2023/02/23 10:55:26;;;;;;;15.25;11.07;;;11.00;99.90;;;;;;4998371;28;20076;-78
2023/02/23 10:58:29;;;;;;;16.37;10.57;;;11.00;99.90;;;;;;5000632;28;20018;-78
2023/02/23 11:01:00;;;;;;;22.43;10.63;;;11.10;99.90;;;;;;4994470;28;20179;-78
2023/02/23 11:03:33;;;;;;;17.52;11.45;;;11.20;99.90;;;;;;5000039;28;20026;-78
2023/02/23 11:05:59;;;;;;;15.07;10.33;;;11.20;99.90;;;;;;4998075;28;20686;-78
2023/02/23 11:08:29;;;;;;;16.00;11.25;;;11.30;99.90;;;;;;4998343;28;20029;-78
2023/02/23 11:11:03;;;;;;;16.98;10.65;;;11.30;99.90;;;;;;4995465;28;20045;-78
2023/02/23 11:13:45;;;;;;;15.63;11.55;;;11.20;99.90;;;;;;4998866;28;20104;-78
2023/02/23 11:16:15;;;;;;;13.40;9.90;;;11.20;99.90;;;;;;4995979;28;20056;-78
2023/02/23 11:18:48;;;;;;;16.55;10.27;;;11.30;99.90;;;;;;4997375;28;20387;-78
2023/02/23 11:21:21;;;;;;;19.42;11.15;;;11.30;99.90;;;;;;4999536;28;20044;-78
2023/02/23 11:23:50;;;;;;;14.60;10.43;;;11.40;99.90;;;;;;4997830;28;20029;-78
2023/02/23 11:26:41;;;;;;;15.55;10.15;;;11.40;99.90;;;;;;5000763;28;20513;-78
2023/02/23 11:29:34;;;;;;;14.30;9.83;;;11.20;99.90;;;;;;4998463;28;20038;-80
2023/02/23 11:32:29;;;;;;;14.27;9.23;;;11.20;99.90;;;;;;4998498;28;20018;-78
2023/02/23 11:35:25;;;;;;;11.82;8.48;;;11.20;99.90;;;;;;4996578;28;20021;-78
2023/02/23 11:37:52;;;;;;;10.55;6.65;;;11.30;99.90;;;;;;5000257;28;20045;-79
2023/02/23 11:40:30;;;;;;;8.75;6.05;;;11.40;99.90;;;;;;4999407;28;20026;-78
2023/02/23 11:43:16;;;;;;;10.10;5.80;;;11.40;99.90;;;;;;5003375;28;20018;-80
2023/02/23 11:45:48;;;;;;;11.73;5.50;;;11.40;99.90;;;;;;4999855;28;20045;-78
2023/02/23 11:48:35;;;;;;;9.55;5.78;;;11.40;99.90;;;;;;4998063;28;20045;-78
2023/02/23 11:51:01;;;;;;;8.13;5.87;;;11.40;99.90;;;;;;5012972;28;20038;-76
2023/02/23 11:53:45;;;;;;;10.70;5.20;;;11.50;99.90;;;;;;4993421;28;20088;-76
2023/02/23 11:56:19;;;;;;;8.80;5.88;;;11.40;99.90;;;;;;4995709;28;20022;-77
2023/02/23 11:58:52;;;;;;;7.00;5.53;;;11.40;99.90;;;;;;4995951;28;21429;-79
2023/02/23 12:01:43;;;;;;;13.57;6.38;;;11.40;99.90;;;;;;4998815;28;20022;-78
2023/02/23 12:04:22;;;;;;;9.82;6.20;;;11.50;99.90;;;;;;4995288;28;20037;-83
2023/02/23 12:06:49;;;;;;;9.40;6.47;;;11.50;99.90;;;;;;4998519;28;20487;-84
2023/02/23 12:09:17;;;;;;;9.60;5.78;;;11.50;99.90;;;;;;4996477;28;20022;-77
2023/02/23 12:11:50;;;;;;;8.45;5.70;;;11.40;99.90;;;;;;4993873;28;20062;-77
2023/02/23 12:14:31;;;;;;;10.98;6.03;;;11.50;99.90;;;;;;4993859;28;20022;-77
2023/02/23 12:17:03;;;;;;;12.48;6.57;;;11.50;99.90;;;;;;4993758;28;21087;-78
2023/02/23 12:19:40;;;;;;;9.32;6.20;;;11.50;99.90;;;;;;4991940;28;20156;-77
2023/02/23 12:22:13;;;;;;;11.98;6.05;;;11.60;99.90;;;;;;4990766;28;20483;-80
2023/02/23 12:25:19;;;;;;;8.25;5.70;;;11.60;99.90;;;;;;4991005;28;20124;-80
2023/02/23 12:28:05;;;;;;;11.27;5.75;;;11.70;99.90;;;;;;4995485;28;20038;-77
2023/02/23 12:30:37;;;;;;;8.02;5.63;;;11.70;99.90;;;;;;5000297;28;20029;-77
2023/02/23 12:33:37;;;;;;;9.07;5.57;;;11.60;99.90;;;;;;4996692;28;20145;-82
2023/02/23 12:36:17;;;;;;;5.82;4.15;;;11.60;99.90;;;;;;4995020;28;20026;-82
2023/02/23 12:42:36;;;;;;;8.85;4.00;;;11.80;99.90;;;;;;5022375;28;20048;-82
2023/02/23 12:45:06;;;;;;;;;;;11.80;99.90;;;;;;5015962;28;20034;-82
2023/02/23 12:48:04;;;;;;;4.05;2.75;;;12.00;99.90;;;;;;5017316;28;19925;-77
2023/02/23 12:50:51;;;;;;;4.03;2.80;;;12.10;99.90;;;;;;5010135;28;20580;-77
2023/02/23 12:53:41;;;;;;;5.82;3.20;;;12.20;99.90;;;;;;5020000;28;20114;-77
2023/02/23 12:56:34;;;;;;;5.25;3.40;;;12.20;99.90;;;;;;5018080;28;20521;-82
2023/02/23 12:59:33;;;;;;;5.00;3.20;;;12.20;99.90;;;;;;5021037;28;20057;-82
2023/02/23 13:02:18;;;;;;;5.28;2.42;;;12.20;99.90;;;;;;5016866;28;20047;-83
2023/02/23 13:05:11;;;;;;;3.80;2.50;;;12.30;99.90;;;;;;5024565;28;20042;-82
2023/02/23 13:07:56;;;;;;;4.47;2.47;;;12.20;99.90;;;;;;5019220;28;20559;-78
2023/02/23 13:10:40;;;;;;;4.43;2.38;;;12.20;99.90;;;;;;5021559;28;20041;-78
2023/02/23 13:13:30;;;;;;;5.95;2.75;;;12.30;99.90;;;;;;5004220;28;20034;-78
2023/02/23 13:16:20;;;;;;;5.63;3.42;;;12.30;99.90;;;;;;4998222;28;20127;-77
2023/02/23 13:18:55;;;;;;;3.92;2.92;;;12.30;99.90;;;;;;4996895;28;20045;-78
2023/02/23 13:21:29;;;;;;;6.40;3.30;;;12.40;99.90;;;;;;4998095;28;20022;-78
2023/02/23 13:24:11;;;;;;;6.63;3.70;;;12.40;99.90;;;;;;4995361;28;20979;-75
2023/02/23 13:26:40;;;;;;;7.18;3.38;;;12.40;99.90;;;;;;4995610;28;20038;-75
2023/02/23 13:29:44;;;;;;;6.30;3.67;;;12.30;99.90;;;;;;4996325;28;20029;-75
2023/02/23 13:32:22;;;;;;;6.18;3.38;;;12.20;99.90;;;;;;4997012;28;20140;-78
2023/02/23 13:34:55;;;;;;;5.82;3.58;;;12.20;99.90;;;;;;4995685;28;20339;-75
2023/02/23 13:37:26;;;;;;;4.88;3.70;;;12.10;99.90;;;;;;4998533;28;20037;-75
2023/02/23 13:40:15;;;;;;;7.20;3.85;;;12.20;99.90;;;;;;4998032;28;20482;-75
2023/02/23 13:43:05;;;;;;;8.75;4.10;;;12.20;99.90;;;;;;4995839;28;20136;-75
2023/02/23 13:45:50;;;;;;;7.28;3.65;;;12.30;99.90;;;;;;4996712;28;20487;-75
2023/02/23 13:48:45;;;;;;;5.93;3.30;;;12.50;99.90;;;;;;4997253;28;20537;-75
2023/02/23 13:51:20;;;;;;;6.47;3.97;;;12.60;99.90;;;;;;4993308;28;20041;-79
2023/02/23 13:54:00;;;;;;;;;;;12.70;99.90;;;;;;4996006;28;20058;-82
2023/02/23 13:56:33;;;;;;;7.03;3.90;;;12.70;99.90;;;;;;5006498;28;20980;-76
2023/02/23 13:59:14;;;;;;;5.93;3.50;;;12.80;99.90;;;;;;4995206;28;20079;-76
2023/02/23 14:01:44;;;;;;;6.38;3.63;;;12.70;99.90;;;;;;4996793;28;20022;-78
2023/02/23 14:04:20;;;;;;;6.20;4.13;;;12.70;99.90;;;;;;4992620;28;20029;-78
2023/02/23 14:07:10;;;;;;;6.53;3.75;;;12.60;99.90;;;;;;4994726;28;20028;-75
2023/02/23 14:10:05;;;;;;;7.70;4.20;;;12.60;99.90;;;;;;4999006;28;20355;-75
2023/02/23 14:12:41;;;;;;;8.25;4.43;;;12.50;99.90;;;;;;4997438;28;20121;-75
2023/02/23 14:15:26;;;;;;;7.05;3.75;;;12.40;99.90;;;;;;5000441;28;20144;-76
2023/02/23 14:17:59;;;;;;;;;;;12.20;99.90;;;;;;4992252;28;20080;-81
2023/02/23 14:20:38;;;;;;;8.35;4.20;;;12.20;99.90;;;;;;4991839;28;19924;-81
2023/02/23 14:23:21;;;;;;;6.07;4.05;;;12.10;99.90;;;;;;4993360;28;20032;-82